createdAt,value
2018-03-26T00:00:44.660Z,8.63
2018-03-26T00:03:12.191Z,9.13
2018-03-26T00:05:39.736Z,10.43
2018-03-26T00:08:07.266Z,9.35
2018-03-26T00:10:34.783Z,9.05
2018-03-26T00:13:02.313Z,9.05
2018-03-26T00:15:29.833Z,7.18
2018-03-26T00:17:57.368Z,6.50
2018-03-26T00:20:24.890Z,7.03
2018-03-26T00:22:52.587Z,5.18
2018-03-26T00:25:20.091Z,4.85
2018-03-26T00:27:47.645Z,5.90
2018-03-26T00:30:15.184Z,5.20
2018-03-26T00:32:42.728Z,5.97
2018-03-26T00:35:10.560Z,7.03
2018-03-26T00:37:38.132Z,8.00
2018-03-26T00:40:05.676Z,7.60
2018-03-26T00:42:33.211Z,7.75
2018-03-26T00:45:00.728Z,7.93
2018-03-26T00:47:28.245Z,7.82
2018-03-26T00:49:55.771Z,7.78
2018-03-26T00:52:23.337Z,8.30
2018-03-26T00:54:50.847Z,6.90
2018-03-26T00:57:19.079Z,6.30
2018-03-26T00:59:46.599Z,10.25
2018-03-26T01:02:14.133Z,9.98
2018-03-26T01:04:42.269Z,8.40
2018-03-26T01:07:09.776Z,8.50
2018-03-26T01:09:37.330Z,8.68
2018-03-26T01:12:04.862Z,8.82
2018-03-26T01:14:32.397Z,10.05
2018-03-26T01:16:59.915Z,9.82
2018-03-26T01:19:27.454Z,11.02
2018-03-26T01:21:55.284Z,9.85
2018-03-26T01:24:22.806Z,9.27
2018-03-26T01:26:50.313Z,9.57
2018-03-26T01:29:17.842Z,9.98
2018-03-26T01:31:45.364Z,9.75
2018-03-26T01:34:12.907Z,10.35
2018-03-26T01:36:40.430Z,11.35
2018-03-26T01:39:08.059Z,11.57
2018-03-26T01:41:35.959Z,12.73
2018-03-26T01:44:03.533Z,13.48
2018-03-26T01:46:31.359Z,12.35
2018-03-26T01:48:58.878Z,10.57
2018-03-26T01:51:26.735Z,10.07
2018-03-26T01:53:54.257Z,9.95
2018-03-26T01:56:21.778Z,9.43
2018-03-26T01:58:49.299Z,9.85
2018-03-26T02:01:16.847Z,10.52
2018-03-26T02:03:44.379Z,9.98
2018-03-26T02:06:12.509Z,9.70
2018-03-26T02:08:40.052Z,10.18
2018-03-26T02:11:07.582Z,10.10
2018-03-26T02:13:35.098Z,9.60
2018-03-26T02:16:02.623Z,10.48
2018-03-26T02:18:30.146Z,11.35
2018-03-26T02:20:57.675Z,12.10
2018-03-26T02:23:25.226Z,12.02
2018-03-26T02:25:53.427Z,11.70
2018-03-26T02:28:21.246Z,10.57
2018-03-26T02:30:48.823Z,11.02
2018-03-26T02:33:16.373Z,10.60
2018-03-26T02:35:43.915Z,8.40
2018-03-26T02:38:11.440Z,9.23
2018-03-26T02:40:38.959Z,8.00
2018-03-26T02:43:06.516Z,7.95
2018-03-26T02:45:34.043Z,8.00
2018-03-26T02:48:01.561Z,7.07
2018-03-26T02:50:29.087Z,6.85
2018-03-26T02:52:56.823Z,6.75
2018-03-26T02:55:24.327Z,5.93
2018-03-26T02:57:51.850Z,5.57
2018-03-26T03:00:19.399Z,5.68
2018-03-26T03:02:46.920Z,5.20
2018-03-26T03:05:14.431Z,5.20
2018-03-26T03:07:41.944Z,4.68
2018-03-26T03:10:09.493Z,5.00
2018-03-26T03:12:37.031Z,3.53
2018-03-26T03:15:04.543Z,4.30
2018-03-26T03:17:32.051Z,3.65
2018-03-26T03:19:59.563Z,3.95
2018-03-26T03:22:27.070Z,4.57
2018-03-26T03:24:54.614Z,4.53
2018-03-26T03:27:22.141Z,4.62
2018-03-26T03:29:49.675Z,4.62
2018-03-26T03:32:17.191Z,4.85
2018-03-26T03:34:44.722Z,6.15
2018-03-26T03:37:12.230Z,5.55
2018-03-26T03:39:39.760Z,6.18
2018-03-26T03:42:07.290Z,6.05
2018-03-26T03:44:34.801Z,5.82
2018-03-26T03:47:02.317Z,5.95
2018-03-26T03:49:29.826Z,6.30
2018-03-26T03:51:57.339Z,7.00
2018-03-26T03:54:25.135Z,7.18
2018-03-26T03:56:52.645Z,7.72
2018-03-26T03:59:20.207Z,7.70
2018-03-26T04:01:47.729Z,6.57
2018-03-26T04:04:15.243Z,7.43
2018-03-26T04:06:42.786Z,7.80
2018-03-26T04:09:10.316Z,7.90
2018-03-26T04:11:37.826Z,7.65
2018-03-26T04:14:05.334Z,8.25
2018-03-26T04:16:32.845Z,8.75
2018-03-26T04:19:00.354Z,8.95
2018-03-26T04:21:27.899Z,10.05
2018-03-26T04:23:55.432Z,9.43
2018-03-26T04:26:23.751Z,9.00
2018-03-26T04:28:51.271Z,8.73
2018-03-26T04:31:18.779Z,8.05
2018-03-26T04:33:46.295Z,7.70
2018-03-26T04:36:13.834Z,6.90
2018-03-26T04:38:41.355Z,7.28
2018-03-26T04:41:08.872Z,8.50
2018-03-26T04:43:36.383Z,6.80
2018-03-26T04:46:03.920Z,6.95
2018-03-26T04:48:31.935Z,6.82
2018-03-26T04:50:59.795Z,6.32
2018-03-26T04:53:27.317Z,6.22
2018-03-26T04:55:54.850Z,6.97
2018-03-26T04:58:22.464Z,6.47
2018-03-26T05:00:49.991Z,7.53
2018-03-26T05:03:17.653Z,7.45
2018-03-26T05:05:45.163Z,7.53
2018-03-26T05:08:12.747Z,8.75
2018-03-26T05:10:40.288Z,8.07
2018-03-26T05:13:07.803Z,6.97
2018-03-26T05:15:35.340Z,9.93
2018-03-26T05:18:02.899Z,11.18
2018-03-26T05:20:30.432Z,9.77
2018-03-26T05:22:57.976Z,9.80
2018-03-26T05:25:25.500Z,11.27
2018-03-26T05:27:53.020Z,12.07
2018-03-26T05:30:20.574Z,10.82
2018-03-26T05:32:48.107Z,10.85
2018-03-26T05:35:15.880Z,12.40
2018-03-26T05:37:43.409Z,11.00
2018-03-26T05:40:10.972Z,12.35
2018-03-26T05:42:38.501Z,11.93
2018-03-26T05:45:06.044Z,12.90
2018-03-26T05:47:33.592Z,12.32
2018-03-26T05:50:01.110Z,11.70
2018-03-26T05:52:28.627Z,14.10
2018-03-26T05:54:56.159Z,14.07
2018-03-26T05:57:23.676Z,11.52
2018-03-26T05:59:51.194Z,10.52
2018-03-26T06:02:18.744Z,11.23
2018-03-26T06:04:46.276Z,12.00
2018-03-26T06:07:13.844Z,11.10
2018-03-26T06:09:41.368Z,12.07
2018-03-26T06:12:08.911Z,11.80
2018-03-26T06:14:36.440Z,11.38
2018-03-26T06:17:10.818Z,12.40
2018-03-26T06:19:38.339Z,11.43
2018-03-26T06:22:05.878Z,12.35
2018-03-26T06:24:33.423Z,10.70
2018-03-26T06:27:00.940Z,11.45
2018-03-26T06:29:28.491Z,12.07
2018-03-26T06:31:56.052Z,12.13
2018-03-26T06:34:23.595Z,11.93
2018-03-26T06:39:53.625Z,14.15
2018-03-26T06:42:21.170Z,14.35
2018-03-26T06:44:48.710Z,13.80
2018-03-26T06:47:16.286Z,13.50
2018-03-26T06:49:44.140Z,14.38
2018-03-26T06:52:11.666Z,13.85
2018-03-26T06:54:39.226Z,11.48
2018-03-26T06:57:06.746Z,12.50
2018-03-26T06:59:34.266Z,11.82
2018-03-26T07:02:01.868Z,12.27
2018-03-26T07:04:29.425Z,10.00
2018-03-26T07:06:56.941Z,9.93
2018-03-26T07:09:24.459Z,9.25
2018-03-26T07:11:51.980Z,9.13
2018-03-26T07:14:19.620Z,9.75
2018-03-26T07:16:47.135Z,7.80
2018-03-26T07:19:14.674Z,8.52
2018-03-26T07:21:42.224Z,10.02
2018-03-26T07:24:10.012Z,8.82
2018-03-26T07:26:37.538Z,10.55
2018-03-26T07:29:05.077Z,9.43
2018-03-26T07:31:32.863Z,8.43
2018-03-26T07:34:00.378Z,6.78
2018-03-26T07:36:28.001Z,10.65
2018-03-26T07:38:55.552Z,13.50
2018-03-26T07:41:23.071Z,12.18
2018-03-26T07:43:50.590Z,13.75
2018-03-26T07:46:18.124Z,8.90
2018-03-26T07:48:45.639Z,9.73
2018-03-26T07:51:13.539Z,8.00
2018-03-26T07:53:41.081Z,9.48
2018-03-26T07:56:08.611Z,8.95
2018-03-26T07:58:36.184Z,8.48
2018-03-26T08:01:03.767Z,8.82
2018-03-26T08:03:31.600Z,10.35
2018-03-26T08:05:59.124Z,9.80
2018-03-26T08:08:26.662Z,10.68
2018-03-26T08:10:54.250Z,11.00
2018-03-26T08:13:21.747Z,10.20
2018-03-26T08:15:49.277Z,10.43
2018-03-26T08:18:16.858Z,7.05
2018-03-26T08:20:44.394Z,7.10
2018-03-26T08:23:11.936Z,6.70
2018-03-26T08:25:39.788Z,9.75
2018-03-26T08:28:07.302Z,6.87
2018-03-26T08:30:34.848Z,7.82
2018-03-26T08:33:02.393Z,8.73
2018-03-26T08:35:30.236Z,8.30
2018-03-26T08:37:57.757Z,7.70
2018-03-26T08:40:25.304Z,9.95
2018-03-26T08:42:52.846Z,8.57
2018-03-26T08:45:20.440Z,10.50
2018-03-26T08:47:48.024Z,12.52
2018-03-26T08:50:15.614Z,11.98
2018-03-26T08:52:43.111Z,11.23
2018-03-26T08:55:10.657Z,11.32
2018-03-26T08:57:38.222Z,10.55
2018-03-26T09:00:12.827Z,11.02
2018-03-26T09:02:40.421Z,8.52
2018-03-26T09:05:07.939Z,9.27
2018-03-26T09:07:35.463Z,5.78
2018-03-26T09:10:03.003Z,7.32
2018-03-26T09:12:30.533Z,7.57
2018-03-26T09:14:58.052Z,8.23
2018-03-26T09:17:25.600Z,7.27
2018-03-26T09:19:53.137Z,5.93
2018-03-26T09:22:20.782Z,6.53
2018-03-26T09:24:48.310Z,8.20
2018-03-26T09:27:15.838Z,7.00
2018-03-26T09:29:43.342Z,5.73
2018-03-26T09:32:11.242Z,5.90
2018-03-26T09:34:38.762Z,7.37
2018-03-26T09:37:06.295Z,8.50
2018-03-26T09:39:33.818Z,7.63
2018-03-26T09:42:01.367Z,8.48
2018-03-26T09:44:28.901Z,6.57
2018-03-26T09:46:56.419Z,7.33
2018-03-26T09:49:23.938Z,6.67
2018-03-26T09:51:51.459Z,8.25
2018-03-26T09:54:19.001Z,5.85
2018-03-26T09:56:46.554Z,8.65
2018-03-26T09:59:14.096Z,7.12
2018-03-26T10:01:47.241Z,8.30
2018-03-26T10:04:14.803Z,8.90
2018-03-26T10:06:42.362Z,7.97
2018-03-26T10:09:09.895Z,8.27
2018-03-26T10:11:37.415Z,10.40
2018-03-26T10:14:05.063Z,8.48
2018-03-26T10:16:32.621Z,8.90
2018-03-26T10:19:00.164Z,9.60
2018-03-26T10:21:27.702Z,10.63
2018-03-26T10:23:55.263Z,11.70
2018-03-26T10:26:22.796Z,10.35
2018-03-26T10:28:50.350Z,9.93
2018-03-26T10:31:17.902Z,8.25
2018-03-26T10:33:45.452Z,10.25
2018-03-26T10:36:13.006Z,9.05
2018-03-26T10:38:40.552Z,10.10
2018-03-26T10:41:08.076Z,9.27
2018-03-26T10:43:35.668Z,7.50
2018-03-26T10:46:03.220Z,10.23
2018-03-26T10:48:30.787Z,13.07
2018-03-26T10:50:58.320Z,10.23
2018-03-26T10:53:25.859Z,11.63
2018-03-26T10:55:53.383Z,9.33
2018-03-26T10:58:20.952Z,6.87
2018-03-26T11:00:48.500Z,7.90
2018-03-26T11:03:16.041Z,9.87
2018-03-26T11:05:43.562Z,7.20
2018-03-26T11:08:11.094Z,8.17
2018-03-26T11:10:38.613Z,6.00
2018-03-26T11:13:06.137Z,7.60
2018-03-26T11:15:33.683Z,8.87
2018-03-26T11:18:01.235Z,9.43
2018-03-26T11:20:28.783Z,7.83
2018-03-26T11:22:56.705Z,8.90
2018-03-26T11:25:24.235Z,7.20
2018-03-26T11:27:51.788Z,10.13
2018-03-26T11:30:19.339Z,10.63
2018-03-26T11:32:46.866Z,8.67
2018-03-26T11:35:14.391Z,8.03
2018-03-26T11:37:41.921Z,7.70
2018-03-26T11:40:09.451Z,11.07
2018-03-26T11:42:36.977Z,9.13
2018-03-26T11:45:04.508Z,11.43
2018-03-26T11:47:32.056Z,11.03
2018-03-26T11:49:59.588Z,8.77
2018-03-26T11:52:27.107Z,9.63
2018-03-26T11:54:54.638Z,9.53
2018-03-26T11:57:22.168Z,10.90
2018-03-26T11:59:49.682Z,9.67
2018-03-26T12:02:17.203Z,9.00
2018-03-26T12:04:44.755Z,8.53
2018-03-26T12:07:12.292Z,8.00
2018-03-26T12:09:39.842Z,10.17
2018-03-26T12:12:07.359Z,8.43
2018-03-26T12:14:34.954Z,10.17
2018-03-26T12:17:02.444Z,10.20
2018-03-26T12:19:29.959Z,8.20
2018-03-26T12:21:57.476Z,7.60
2018-03-26T12:24:37.218Z,8.00
2018-03-26T12:27:05.693Z,8.13
2018-03-26T12:29:44.959Z,7.23
2018-03-26T12:32:12.508Z,8.40
2018-03-26T12:34:51.719Z,9.17
2018-03-26T12:37:19.239Z,9.53
2018-03-26T12:39:46.783Z,9.57
2018-03-26T12:42:14.313Z,9.97
2018-03-26T12:44:53.616Z,9.50
2018-03-26T12:47:21.159Z,10.03
2018-03-26T12:49:48.679Z,10.37
2018-03-26T12:52:28.148Z,9.57
2018-03-26T12:54:55.890Z,7.40
2018-03-26T12:57:35.302Z,10.10
2018-03-26T13:00:10.059Z,10.50
2018-03-26T13:02:37.572Z,7.83
2018-03-26T13:05:05.458Z,9.20
2018-03-26T13:07:32.968Z,10.07
2018-03-26T13:10:00.508Z,9.63
2018-03-26T13:12:28.023Z,9.60
2018-03-26T13:14:55.542Z,10.60
2018-03-26T13:17:23.123Z,11.83
2018-03-26T13:19:50.647Z,9.07
2018-03-26T13:22:18.207Z,11.73
2018-03-26T13:24:45.736Z,12.53
2018-03-26T13:27:13.268Z,13.10
2018-03-26T13:29:40.785Z,12.10
2018-03-26T13:32:08.310Z,12.97
2018-03-26T13:34:35.873Z,15.37
2018-03-26T13:37:03.386Z,14.07
2018-03-26T13:39:30.916Z,14.00
2018-03-26T13:41:58.484Z,12.37
2018-03-26T13:44:26.050Z,12.80
2018-03-26T13:46:53.668Z,13.50
2018-03-26T13:49:21.236Z,13.27
2018-03-26T13:51:48.811Z,12.20
2018-03-26T13:54:16.717Z,12.87
2018-03-26T13:56:44.271Z,10.50
2018-03-26T13:59:11.828Z,10.90
2018-03-26T14:01:39.411Z,12.97
2018-03-26T14:04:06.968Z,13.80
2018-03-26T14:06:34.633Z,11.87
2018-03-26T14:09:14.009Z,12.60
2018-03-26T14:11:53.530Z,12.87
2018-03-26T14:17:36.977Z,11.60
2018-03-26T14:20:04.557Z,9.07
2018-03-26T14:22:32.111Z,10.67
2018-03-26T14:24:59.632Z,9.90
2018-03-26T14:27:27.236Z,9.20
2018-03-26T14:29:55.032Z,7.83
2018-03-26T14:32:22.584Z,9.27
2018-03-26T14:35:02.106Z,11.53
2018-03-26T14:37:29.654Z,10.70
2018-03-26T14:39:57.195Z,13.30
2018-03-26T14:42:24.726Z,13.37
2018-03-26T14:44:52.245Z,14.90
2018-03-26T14:47:19.768Z,13.50
2018-03-26T14:49:47.356Z,15.20
2018-03-26T14:52:14.898Z,16.67
2018-03-26T14:54:42.424Z,13.47
2018-03-26T14:57:10.283Z,14.83
2018-03-26T14:59:37.815Z,14.00
2018-03-26T15:02:05.367Z,10.80
2018-03-26T15:04:32.902Z,14.07
2018-03-26T15:07:00.427Z,14.30
2018-03-26T15:09:27.994Z,13.27
2018-03-26T15:11:55.512Z,13.10
2018-03-26T15:14:23.036Z,14.73
2018-03-26T15:16:50.558Z,15.40
2018-03-26T15:19:18.086Z,14.40
2018-03-26T15:21:46.347Z,14.77
2018-03-26T15:24:13.876Z,12.83
2018-03-26T15:26:41.428Z,12.63
2018-03-26T15:29:08.960Z,14.10
2018-03-26T15:31:36.527Z,11.30
2018-03-26T15:34:04.338Z,13.37
2018-03-26T15:36:32.150Z,12.50
2018-03-26T15:38:59.716Z,13.47
2018-03-26T15:41:27.253Z,13.30
2018-03-26T15:43:54.800Z,12.33
2018-03-26T15:46:22.377Z,10.87
2018-03-26T15:48:49.908Z,10.97
2018-03-26T15:51:18.283Z,10.70
2018-03-26T15:53:45.832Z,12.40
2018-03-26T15:56:13.367Z,14.20
2018-03-26T15:58:40.888Z,14.13
2018-03-26T16:01:08.464Z,15.53
2018-03-26T16:03:35.983Z,12.43
2018-03-26T16:06:03.552Z,16.70
2018-03-26T16:08:31.089Z,18.43
2018-03-26T16:10:58.709Z,18.93
2018-03-26T16:13:27.154Z,17.17
2018-03-26T16:15:54.668Z,19.00
2018-03-26T16:18:22.204Z,19.10
2018-03-26T16:20:49.743Z,16.47
2018-03-26T16:23:17.680Z,16.33
2018-03-26T16:25:45.245Z,17.90
2018-03-26T16:28:12.773Z,15.67
2018-03-26T16:30:40.367Z,17.87
2018-03-26T16:33:07.892Z,15.77
2018-03-26T16:35:35.439Z,16.13
2018-03-26T16:38:03.003Z,15.43
2018-03-26T16:40:30.540Z,14.37
2018-03-26T16:43:06.360Z,14.43
2018-03-26T16:45:33.927Z,14.50
2018-03-26T16:48:01.451Z,16.90
2018-03-26T16:50:29.025Z,16.00
2018-03-26T16:52:56.551Z,16.30
2018-03-26T16:55:24.150Z,17.67
2018-03-26T16:57:51.710Z,17.15
2018-03-26T17:00:19.331Z,18.50
2018-03-26T17:02:46.899Z,20.08
2018-03-26T17:05:14.493Z,19.42
2018-03-26T17:07:42.041Z,22.75
2018-03-26T17:10:10.443Z,25.55
2018-03-26T17:12:37.995Z,26.35
2018-03-26T17:15:05.555Z,32.00
2018-03-26T17:17:33.158Z,33.92
2018-03-26T17:20:00.706Z,32.90
2018-03-26T17:22:28.271Z,31.15
2018-03-26T17:24:55.837Z,31.48
2018-03-26T17:27:23.406Z,30.27
2018-03-26T17:29:50.991Z,27.70
2018-03-26T17:32:18.611Z,28.25
2018-03-26T17:34:46.607Z,24.92
2018-03-26T17:37:14.203Z,25.25
2018-03-26T17:39:41.752Z,26.73
2018-03-26T17:42:09.342Z,22.33
2018-03-26T17:44:36.939Z,24.45
2018-03-26T17:47:04.499Z,25.70
2018-03-26T17:49:32.057Z,23.35
2018-03-26T17:51:59.627Z,24.87
2018-03-26T17:54:27.179Z,30.45
2018-03-26T17:56:54.738Z,30.40
2018-03-26T17:59:22.291Z,31.73
2018-03-26T18:01:49.888Z,31.75
2018-03-26T18:04:17.454Z,32.28
2018-03-26T18:06:44.997Z,32.75
2018-03-26T18:09:12.576Z,31.85
2018-03-26T18:11:40.147Z,24.60
2018-03-26T18:14:07.732Z,25.12
2018-03-26T18:16:35.292Z,27.25
2018-03-26T18:19:02.859Z,28.53
2018-03-26T18:21:30.410Z,20.92
2018-03-26T18:23:57.974Z,25.05
2018-03-26T18:26:25.542Z,27.35
2018-03-26T18:28:53.119Z,30.27
2018-03-26T18:31:20.869Z,27.80
2018-03-26T18:33:48.413Z,31.00
2018-03-26T18:36:15.959Z,28.23
2018-03-26T18:38:43.536Z,33.45
2018-03-26T18:41:11.094Z,34.20
2018-03-26T18:43:38.664Z,39.83
2018-03-26T18:46:06.224Z,36.88
2018-03-26T18:48:33.845Z,38.38
2018-03-26T18:51:01.441Z,42.15
2018-03-26T18:53:29.000Z,43.53
2018-03-26T18:55:57.354Z,40.17
2018-03-26T18:58:24.931Z,29.10
2018-03-26T19:00:52.480Z,31.40
2018-03-26T19:03:20.378Z,30.95
2018-03-26T19:05:47.979Z,28.12
2018-03-26T19:08:15.847Z,28.60
2018-03-26T19:10:43.796Z,28.08
2018-03-26T19:13:11.353Z,28.08
2018-03-26T19:15:38.910Z,24.27
2018-03-26T19:18:06.481Z,23.20
2018-03-26T19:20:34.032Z,23.08
2018-03-26T19:23:01.580Z,22.48
2018-03-26T19:25:29.874Z,38.70
2018-03-26T19:27:57.442Z,18.75
2018-03-26T19:30:25.026Z,19.67
2018-03-26T19:32:52.577Z,22.85
2018-03-26T19:35:20.122Z,17.87
2018-03-26T19:37:47.679Z,20.17
2018-03-26T19:40:15.250Z,21.77
2018-03-26T19:42:43.678Z,23.83
2018-03-26T19:45:11.253Z,21.60
2018-03-26T19:47:38.868Z,22.58
2018-03-26T19:50:06.458Z,21.00
2018-03-26T19:52:34.016Z,20.52
2018-03-26T19:55:01.903Z,21.92
2018-03-26T19:57:29.455Z,21.60
2018-03-26T19:59:57.029Z,30.70
2018-03-26T20:02:24.557Z,23.67
2018-03-26T20:04:52.143Z,23.80
2018-03-26T20:07:20.314Z,25.67
2018-03-26T20:09:47.849Z,26.63
2018-03-26T20:12:15.410Z,33.17
2018-03-26T20:14:42.947Z,35.07
2018-03-26T20:17:11.423Z,42.00
2018-03-26T20:19:38.970Z,44.03
2018-03-26T20:22:07.415Z,44.97
2018-03-26T20:24:34.957Z,45.07
2018-03-26T20:27:02.521Z,42.50
2018-03-26T20:29:30.098Z,40.90
2018-03-26T20:31:57.646Z,42.57
2018-03-26T20:34:25.237Z,44.93
2018-03-26T20:36:52.762Z,42.13
2018-03-26T20:39:20.302Z,43.37
2018-03-26T20:41:48.208Z,44.20
2018-03-26T20:44:15.750Z,42.43
2018-03-26T20:46:43.289Z,45.47
2018-03-26T20:49:10.827Z,45.33
2018-03-26T20:51:38.395Z,45.70
2018-03-26T20:54:05.945Z,44.00
2018-03-26T20:56:33.477Z,43.87
2018-03-26T20:59:01.050Z,47.00
2018-03-26T21:01:28.609Z,43.77
2018-03-26T21:03:56.192Z,45.77
2018-03-26T21:06:23.723Z,43.53
2018-03-26T21:08:51.262Z,40.93
2018-03-26T21:11:18.893Z,35.57
2018-03-26T21:13:46.528Z,37.30
2018-03-26T21:16:14.074Z,34.80
2018-03-26T21:18:41.660Z,31.97
2018-03-26T21:21:09.174Z,30.07
2018-03-26T21:23:36.715Z,29.53
2018-03-26T21:26:04.280Z,28.97
2018-03-26T21:28:31.806Z,28.93
2018-03-26T21:30:59.359Z,28.30
2018-03-26T21:33:26.894Z,31.67
2018-03-26T21:35:54.418Z,33.60
2018-03-26T21:38:21.948Z,33.07
2018-03-26T21:40:49.817Z,32.00
2018-03-26T21:43:17.361Z,30.93
2018-03-26T21:45:44.885Z,27.23
2018-03-26T21:48:12.445Z,30.33
2018-03-26T21:50:40.016Z,36.90
2018-03-26T21:53:07.623Z,37.40
2018-03-26T21:55:35.332Z,38.03
2018-03-26T21:58:03.090Z,37.70
2018-03-26T22:00:30.616Z,39.57
2018-03-26T22:02:58.669Z,41.40
2018-03-26T22:05:26.239Z,39.37
2018-03-26T22:07:53.785Z,36.63
2018-03-26T22:10:21.315Z,36.17
2018-03-26T22:12:48.832Z,37.23
2018-03-26T22:15:16.355Z,34.20
2018-03-26T22:17:43.926Z,38.07
2018-03-26T22:20:11.456Z,36.10
2018-03-26T22:22:38.996Z,33.77
2018-03-26T22:25:06.524Z,32.20
2018-03-26T22:27:34.322Z,33.37
2018-03-26T22:30:01.872Z,35.83
2018-03-26T22:32:29.410Z,37.73
2018-03-26T22:34:57.212Z,36.63
2018-03-26T22:37:24.768Z,35.50
2018-03-26T22:39:52.300Z,36.40
2018-03-26T22:42:19.843Z,35.97
2018-03-26T22:44:47.718Z,35.07
2018-03-26T22:47:15.231Z,35.63
2018-03-26T22:49:42.778Z,33.70
2018-03-26T22:52:10.339Z,32.27
2018-03-26T22:54:37.876Z,37.40
2018-03-26T22:57:05.680Z,38.00
2018-03-26T22:59:33.209Z,36.13
2018-03-26T23:02:00.749Z,35.40
2018-03-26T23:04:28.286Z,33.13
2018-03-26T23:06:55.802Z,33.77
2018-03-26T23:09:23.351Z,32.90
2018-03-26T23:11:50.878Z,33.47
2018-03-26T23:14:18.441Z,32.80
2018-03-26T23:16:45.972Z,31.47
2018-03-26T23:19:13.491Z,33.27
2018-03-26T23:21:41.050Z,31.03
2018-03-26T23:24:08.812Z,32.67
2018-03-26T23:26:36.370Z,32.60
2018-03-26T23:29:03.935Z,31.57
2018-03-26T23:31:31.482Z,32.47
2018-03-26T23:33:59.242Z,32.10
2018-03-26T23:36:26.784Z,31.90
2018-03-26T23:38:55.044Z,34.73
2018-03-26T23:41:22.563Z,33.20
2018-03-26T23:43:50.104Z,33.40
2018-03-26T23:46:17.685Z,33.73
2018-03-26T23:48:45.497Z,32.50
2018-03-26T23:51:13.016Z,34.00
2018-03-26T23:53:40.548Z,33.23
2018-03-26T23:56:08.095Z,33.67
2018-03-26T23:58:35.651Z,33.17
